Time;durP1;ratioP1;P1;durP2;ratioP2;P2;SDS_P1;SDS_P2;PMS_P1;PMS_P2;Temp;Humidity;BMP_temperature;BMP_pressure;BME280_temperature;BME280_humidity;BME280_pressure;Samples;Min_cycle;Max_cycle;Signal;HPM_P1;HPM_P2
2022/03/22 00:01:17;;;;;;;0.00;0.00;;;;;;;5.28;60.22;99962.44;5012497;28;20205;-57
2022/03/22 00:03:46;;;;;;;0.00;0.00;;;;;;;5.25;59.21;99973.78;5013299;28;20196;-57
2022/03/22 00:06:13;;;;;;;0.00;0.00;;;;;;;5.19;59.22;99965.53;5012690;28;20196;-57
2022/03/22 00:08:41;;;;;;;0.00;0.00;;;;;;;5.12;58.58;99970.19;5012490;28;20194;-57
2022/03/22 00:11:08;;;;;;;0.00;0.00;;;;;;;5.21;60.04;99966.28;5012607;28;20198;-57
2022/03/22 00:13:34;;;;;;;0.00;0.00;;;;;;;5.16;58.02;99972.53;5013100;28;20189;-57
2022/03/22 00:16:01;;;;;;;0.00;0.00;;;;;;;5.24;58.78;99971.28;5012338;28;20186;-57
2022/03/22 00:18:29;;;;;;;0.00;0.00;;;;;;;5.18;60.17;99969.84;5012981;28;20185;-57
2022/03/22 00:20:57;;;;;;;0.00;0.00;;;;;;;5.19;61.51;99975.88;5012165;28;20229;-57
2022/03/22 00:23:24;;;;;;;0.00;0.00;;;;;;;5.19;61.24;99970.69;5012607;28;20208;-57
2022/03/22 00:25:51;;;;;;;0.00;0.00;;;;;;;5.06;62.24;99970.50;5012010;28;20316;-57
2022/03/22 00:28:18;;;;;;;0.00;0.00;;;;;;;5.03;61.37;99966.34;5012744;28;20188;-57
2022/03/22 00:30:46;;;;;;;0.00;0.00;;;;;;;4.91;61.40;99972.16;5012186;28;20596;-58
2022/03/22 00:33:13;;;;;;;0.00;0.00;;;;;;;4.81;61.83;99982.16;5010397;28;20308;-56
2022/03/22 00:35:42;;;;;;;0.00;0.00;;;;;;;4.73;62.54;99975.66;5058433;22;20220;-62
2022/03/22 00:38:12;;;;;;;0.00;0.00;;;;;;;4.71;62.37;99972.31;5020424;28;20267;-62
2022/03/22 00:40:41;;;;;;;0.00;0.00;;;;;;;4.64;62.77;99972.69;5031473;28;20584;-59
2022/03/22 00:43:09;;;;;;;0.00;0.00;;;;;;;4.53;63.57;99973.25;5032745;28;20180;-60
2022/03/22 00:45:40;;;;;;;0.00;0.00;;;;;;;4.43;64.01;99967.69;5031608;28;20215;-58
2022/03/22 00:48:11;;;;;;;0.00;0.00;;;;;;;4.42;64.70;99976.38;5031160;28;20186;-58
2022/03/22 00:50:43;;;;;;;0.00;0.00;;;;;;;4.48;63.87;99970.88;5032314;28;20548;-59
2022/03/22 00:53:12;;;;;;;0.00;0.00;;;;;;;4.41;63.71;99972.97;5031294;28;20219;-62
2022/03/22 00:55:40;;;;;;;0.00;0.00;;;;;;;4.46;63.12;99975.31;5032432;28;20210;-55
2022/03/22 00:58:08;;;;;;;0.00;0.00;;;;;;;4.42;63.43;99966.88;5032411;28;20182;-57
2022/03/22 01:00:36;;;;;;;0.00;0.00;;;;;;;4.40;62.37;99973.03;5030910;28;20228;-54
2022/03/22 01:03:05;;;;;;;0.00;0.00;;;;;;;4.42;62.43;99972.06;5032549;28;20189;-60
2022/03/22 01:05:34;;;;;;;0.00;0.00;;;;;;;4.31;62.16;99971.75;5030841;28;20220;-59
2022/03/22 01:08:06;;;;;;;0.00;0.00;;;;;;;4.38;61.41;99969.69;5032198;28;20190;-60
2022/03/22 01:10:36;;;;;;;0.00;0.00;;;;;;;4.37;61.42;99968.00;5031968;28;20178;-56
2022/03/22 01:13:04;;;;;;;0.00;0.00;;;;;;;4.35;60.91;99962.94;5030561;28;20296;-57
2022/03/22 01:15:33;;;;;;;0.00;0.00;;;;;;;4.31;60.94;99960.56;5030564;28;20240;-58
2022/03/22 01:18:05;;;;;;;0.00;0.00;;;;;;;4.28;63.71;99964.16;5031964;28;20193;-59
2022/03/22 01:20:34;;;;;;;0.00;0.00;;;;;;;4.25;62.79;99964.31;5030818;28;20188;-58
2022/03/22 01:23:04;;;;;;;0.00;0.00;;;;;;;4.28;63.97;99959.00;5032210;28;20189;-59
2022/03/22 01:25:34;;;;;;;0.00;0.00;;;;;;;4.18;64.95;99963.78;5031746;28;20209;-56
2022/03/22 01:28:03;;;;;;;0.00;0.00;;;;;;;4.09;64.04;99961.66;5031981;28;20193;-58
2022/03/22 01:30:31;;;;;;;0.00;0.00;;;;;;;3.98;64.59;99962.19;5032012;28;20190;-58
2022/03/22 01:32:59;;;;;;;0.00;0.00;;;;;;;3.95;63.91;99962.31;5031732;28;20208;-61
2022/03/22 01:35:27;;;;;;;0.00;0.00;;;;;;;4.01;61.85;99958.63;5031680;28;20214;-59
2022/03/22 01:37:56;;;;;;;0.00;0.00;;;;;;;3.92;62.58;99954.72;5030865;28;20193;-60
2022/03/22 01:40:27;;;;;;;0.00;0.00;;;;;;;3.90;63.68;99956.56;5030212;28;20245;-61
2022/03/22 01:42:55;;;;;;;0.00;0.00;;;;;;;3.98;65.13;99951.84;5030690;28;20198;-60
2022/03/22 01:45:23;;;;;;;0.00;0.00;;;;;;;3.97;64.39;99951.03;5031867;28;20228;-60
2022/03/22 01:47:52;;;;;;;0.00;0.00;;;;;;;3.88;63.54;99956.63;5030511;28;20205;-60
2022/03/22 01:50:20;;;;;;;0.00;0.00;;;;;;;3.88;63.92;99948.88;5030175;28;20674;-55
2022/03/22 01:52:48;;;;;;;0.00;0.00;;;;;;;4.00;65.48;99955.19;5031138;28;20249;-56
2022/03/22 01:55:17;;;;;;;0.00;0.00;;;;;;;3.93;65.21;99951.22;5031746;28;20702;-59
2022/03/22 01:57:46;;;;;;;0.00;0.00;;;;;;;3.81;65.61;99950.91;5031623;28;20192;-57
2022/03/22 02:00:15;;;;;;;0.00;0.00;;;;;;;3.87;64.99;99947.22;5031199;28;20211;-59
2022/03/22 02:05:55;;;;;;;0.00;0.00;;;;;;;3.74;65.34;99940.97;5031182;28;20692;-60
2022/03/22 02:08:26;;;;;;;0.00;0.00;;;;;;;3.70;65.57;99942.88;5031349;28;20208;-59
2022/03/22 02:10:54;;;;;;;0.00;0.00;;;;;;;3.65;65.99;99947.44;5031409;28;20198;-54
2022/03/22 02:13:23;;;;;;;0.00;0.00;;;;;;;3.65;64.28;99942.28;5031524;28;20553;-58
2022/03/22 02:15:54;;;;;;;0.00;0.00;;;;;;;3.82;65.08;99944.03;5031703;28;20677;-58
2022/03/22 02:18:21;;;;;;;0.00;0.00;;;;;;;3.74;65.05;99940.97;5031279;28;20200;-59
2022/03/22 02:20:48;;;;;;;0.00;0.00;;;;;;;3.66;64.69;99942.19;5031215;28;20183;-58
2022/03/22 02:23:20;;;;;;;0.00;0.00;;;;;;;3.74;63.75;99941.78;5031755;28;20179;-61
2022/03/22 02:25:50;;;;;;;0.00;0.00;;;;;;;3.73;64.91;99945.28;5031722;28;20680;-58
2022/03/22 02:28:20;;;;;;;0.00;0.00;;;;;;;3.71;65.04;99941.13;5027659;28;20549;-58
2022/03/22 02:30:50;;;;;;;0.00;0.00;;;;;;;3.69;64.65;99943.78;5002051;28;20208;-55
2022/03/22 02:33:18;;;;;;;0.00;0.00;;;;;;;3.60;64.75;99939.06;5001755;28;20207;-57
2022/03/22 02:35:46;;;;;;;0.00;0.00;;;;;;;3.68;65.36;99945.53;5001507;28;20220;-57
2022/03/22 02:38:13;;;;;;;0.00;0.00;;;;;;;3.66;65.68;99943.94;5001840;28;20194;-58
2022/03/22 02:40:40;;;;;;;0.00;0.00;;;;;;;3.62;65.40;99937.25;5000129;28;20197;-58
2022/03/22 02:43:09;;;;;;;0.00;0.00;;;;;;;3.63;66.21;99941.50;5001406;28;20556;-58
2022/03/22 02:45:37;;;;;;;0.00;0.00;;;;;;;3.57;66.09;99942.63;5001461;28;20209;-58
2022/03/22 02:48:05;;;;;;;0.00;0.00;;;;;;;3.62;64.88;99935.50;5001167;28;20186;-60
2022/03/22 02:50:32;;;;;;;0.00;0.00;;;;;;;3.58;65.21;99946.06;5000487;28;20189;-60
2022/03/22 02:53:01;;;;;;;0.00;0.00;;;;;;;3.65;65.21;99940.50;5000801;28;20547;-58
2022/03/22 02:55:29;;;;;;;0.00;0.00;;;;;;;3.89;64.34;99945.41;5005793;28;20217;-60
2022/03/22 02:57:56;;;;;;;0.00;0.00;;;;;;;3.93;63.57;99941.75;5010941;28;20205;-58
2022/03/22 03:00:26;;;;;;;0.00;0.00;;;;;;;4.08;63.37;99939.31;5014059;28;20198;-55
2022/03/22 03:02:54;;;;;;;0.00;0.00;;;;;;;4.22;62.07;99938.63;5014343;28;20200;-60
2022/03/22 03:05:22;;;;;;;0.00;0.00;;;;;;;4.17;63.63;99945.75;5014066;28;20186;-59
2022/03/22 03:07:51;;;;;;;0.00;0.00;;;;;;;4.04;62.89;99948.13;5014175;28;20182;-61
2022/03/22 03:10:18;;;;;;;0.00;0.00;;;;;;;4.04;64.36;99948.13;5013958;28;20208;-60
2022/03/22 03:12:46;;;;;;;0.00;0.00;;;;;;;3.96;63.86;99953.66;5014152;28;20289;-58
2022/03/22 03:15:16;;;;;;;0.00;0.00;;;;;;;3.84;63.78;99939.63;5013979;28;20651;-60
2022/03/22 03:17:45;;;;;;;0.00;0.00;;;;;;;3.80;65.45;99944.09;5014168;28;20188;-60
2022/03/22 03:20:12;;;;;;;0.00;0.00;;;;;;;3.66;64.52;99942.19;5013994;28;20646;-61
2022/03/22 03:22:40;;;;;;;0.00;0.00;;;;;;;3.62;65.32;99945.81;5014077;28;20278;-61
2022/03/22 03:25:08;;;;;;;0.00;0.00;;;;;;;3.52;65.77;99944.59;5013902;28;20837;-60
2022/03/22 03:27:36;;;;;;;0.00;0.00;;;;;;;3.49;66.17;99955.91;5014065;28;20193;-59
2022/03/22 03:30:04;;;;;;;0.00;0.00;;;;;;;3.47;65.95;99952.56;5013877;28;20269;-60
2022/03/22 03:32:32;;;;;;;0.00;0.00;;;;;;;3.43;66.84;99951.03;5014415;28;20733;-60
2022/03/22 03:35:01;;;;;;;0.00;0.00;;;;;;;3.39;67.16;99954.66;5014364;28;20197;-60
2022/03/22 03:37:30;;;;;;;0.00;0.00;;;;;;;3.34;67.47;99957.44;5013059;28;20208;-59
2022/03/22 03:39:57;;;;;;;0.00;0.00;;;;;;;3.31;67.78;99960.16;5013972;28;20215;-59
2022/03/22 03:42:23;;;;;;;0.00;0.00;;;;;;;3.35;67.34;99953.13;5014242;28;20271;-60
2022/03/22 03:47:35;;;;;;;0.00;0.00;;;;;;;3.30;67.53;99961.06;5013683;28;20207;-58
2022/03/22 03:50:06;;;;;;;0.00;0.00;;;;;;;3.43;67.00;99963.09;5013626;28;20251;-58
2022/03/22 03:52:35;;;;;;;0.00;0.00;;;;;;;3.32;67.08;99963.59;5014030;28;20291;-59
2022/03/22 03:55:05;;;;;;;0.00;0.00;;;;;;;3.29;67.72;99961.16;5013486;28;20198;-59
2022/03/22 03:57:33;;;;;;;0.00;0.00;;;;;;;3.13;68.14;99969.59;5013575;28;20186;-59
2022/03/22 04:00:00;;;;;;;0.00;0.00;;;;;;;3.10;68.62;99972.31;5021031;28;20271;-59
2022/03/22 04:02:27;;;;;;;0.00;0.00;;;;;;;3.15;68.46;99964.41;5033493;28;20226;-59
2022/03/22 04:04:55;;;;;;;0.00;0.00;;;;;;;3.09;68.73;99968.06;5033307;28;20188;-56
2022/03/22 04:07:45;;;;;;;0.00;0.00;;;;;;;3.13;68.60;99968.78;5032083;28;20199;-58
2022/03/22 04:10:12;;;;;;;0.00;0.00;;;;;;;3.02;68.84;99977.84;5031655;28;20194;-59
2022/03/22 04:12:44;;;;;;;0.00;0.00;;;;;;;3.13;68.20;99979.09;5033073;28;20279;-57
2022/03/22 04:15:11;;;;;;;0.00;0.00;;;;;;;2.99;68.91;99984.88;5033200;28;20193;-59
2022/03/22 04:17:39;;;;;;;0.00;0.00;;;;;;;3.05;68.85;99988.03;5033155;28;20249;-59
2022/03/22 04:20:08;;;;;;;0.00;0.00;;;;;;;3.12;66.96;99980.84;5033378;28;20212;-59
2022/03/22 04:22:35;;;;;;;0.00;0.00;;;;;;;2.91;68.69;99980.88;5033067;28;20600;-60
2022/03/22 04:25:04;;;;;;;0.00;0.00;;;;;;;2.97;68.62;99974.63;5032977;28;20308;-59
2022/03/22 04:33:00;;;;;;;0.00;0.00;;;;;;;2.89;69.46;99977.53;5006580;28;20584;-58
2022/03/22 04:35:28;;;;;;;0.00;0.00;;;;;;;2.83;69.73;99977.00;5010987;28;20312;-59
2022/03/22 04:37:56;;;;;;;0.00;0.00;;;;;;;2.72;69.42;99985.19;5011675;28;20313;-57
2022/03/22 04:40:26;;;;;;;0.00;0.00;;;;;;;2.83;68.71;99989.88;5012572;28;20188;-59
2022/03/22 04:42:53;;;;;;;0.00;0.00;;;;;;;2.92;69.12;99986.91;5011683;28;20193;-58
2022/03/22 04:45:21;;;;;;;0.00;0.00;;;;;;;2.81;70.36;99984.78;5012760;28;20235;-58
2022/03/22 04:47:49;;;;;;;0.00;0.00;;;;;;;2.78;69.54;99980.59;5014745;28;20188;-58
2022/03/22 04:50:18;;;;;;;0.00;0.00;;;;;;;2.72;69.59;99982.59;5032383;28;20188;-59
2022/03/22 04:58:16;;;;;;;0.00;0.00;;;;;;;2.82;69.83;99985.63;5032136;28;20192;-57
2022/03/22 05:00:46;;;;;;;0.00;0.00;;;;;;;2.63;70.80;99978.69;5031118;28;20191;-59
2022/03/22 05:03:13;;;;;;;0.00;0.00;;;;;;;2.71;70.49;99979.19;5032417;28;20177;-60
2022/03/22 05:08:24;;;;;;;0.00;0.00;;;;;;;2.58;70.06;99990.94;5032177;28;20194;-56
2022/03/22 05:10:55;;;;;;;0.00;0.00;;;;;;;2.79;69.36;99991.75;5032044;28;20668;-60
2022/03/22 05:13:22;;;;;;;0.00;0.00;;;;;;;2.67;69.92;99993.13;5032151;28;20202;-60
2022/03/22 05:15:50;;;;;;;0.00;0.00;;;;;;;2.61;71.10;99989.09;5031824;28;20208;-60
2022/03/22 05:18:17;;;;;;;0.00;0.00;;;;;;;2.65;70.33;99993.19;5032097;28;20188;-58
2022/03/22 05:20:44;;;;;;;0.00;0.00;;;;;;;2.65;69.53;99995.75;5031489;28;20715;-58
2022/03/22 05:23:12;;;;;;;0.00;0.00;;;;;;;2.60;71.04;99995.16;5032109;28;20546;-59
2022/03/22 05:25:39;;;;;;;0.00;0.00;;;;;;;2.55;71.35;99988.50;5031674;28;20626;-58
2022/03/22 05:28:07;;;;;;;0.00;0.00;;;;;;;2.44;72.11;99994.94;5031839;28;20605;-59
2022/03/22 05:30:34;;;;;;;0.00;0.00;;;;;;;2.71;70.72;99991.22;5031521;28;20188;-57
2022/03/22 05:33:02;;;;;;;0.00;0.00;;;;;;;2.70;70.43;99999.88;5031899;28;20259;-59
2022/03/22 05:35:29;;;;;;;0.00;0.00;;;;;;;2.71;69.73;99998.97;5031260;28;20207;-59
2022/03/22 05:37:56;;;;;;;0.00;0.00;;;;;;;2.73;69.58;100003.16;5031663;28;20642;-60
2022/03/22 05:40:24;;;;;;;0.00;0.00;;;;;;;2.72;69.63;99995.50;5031333;28;20256;-59
2022/03/22 05:42:52;;;;;;;0.00;0.00;;;;;;;2.71;70.37;100004.97;5029978;28;20230;-60
2022/03/22 05:45:20;;;;;;;0.00;0.00;;;;;;;2.64;71.07;100006.16;5031365;28;20211;-59
2022/03/22 05:47:48;;;;;;;0.00;0.00;;;;;;;2.56;71.34;100011.66;5031587;28;20597;-57
2022/03/22 05:50:15;;;;;;;0.00;0.00;;;;;;;2.57;71.77;100005.59;5031149;28;20258;-58
2022/03/22 05:52:43;;;;;;;0.00;0.00;;;;;;;2.60;71.06;100007.19;5031392;28;20270;-60
2022/03/22 05:55:11;;;;;;;0.00;0.00;;;;;;;2.72;69.89;100005.81;5030674;28;20211;-61
2022/03/22 05:57:38;;;;;;;0.00;0.00;;;;;;;2.71;70.85;100004.13;5026199;28;20196;-58
2022/03/22 06:00:06;;;;;;;0.00;0.00;;;;;;;2.68;71.10;100001.69;5008477;28;20227;-60
2022/03/22 06:02:38;;;;;;;0.00;0.00;;;;;;;2.63;71.50;100017.38;5009368;28;20211;-60
2022/03/22 06:05:11;;;;;;;0.00;0.00;;;;;;;2.62;72.13;100015.69;5011100;28;20268;-59
2022/03/22 06:07:41;;;;;;;0.00;0.00;;;;;;;2.58;72.71;100019.28;5011245;28;20200;-61
2022/03/22 06:10:12;;;;;;;0.00;0.00;;;;;;;2.58;73.60;100021.88;5008843;28;20200;-60
2022/03/22 06:12:41;;;;;;;0.00;0.00;;;;;;;2.65;73.05;100026.69;5010802;28;20192;-60
2022/03/22 06:15:16;;;;;;;0.00;0.00;;;;;;;2.64;72.64;100025.03;5008640;28;20557;-63
2022/03/22 06:17:46;;;;;;;0.00;0.00;;;;;;;2.63;72.68;100025.09;5011078;28;20223;-60
2022/03/22 06:20:14;;;;;;;0.00;0.00;;;;;;;2.65;72.57;100020.72;5011081;28;20231;-60
2022/03/22 06:22:41;;;;;;;0.00;0.00;;;;;;;2.70;72.58;100030.81;5011357;28;20387;-59
2022/03/22 06:25:10;;;;;;;0.00;0.00;;;;;;;2.75;71.89;100032.31;5011808;28;20191;-60
2022/03/22 06:27:37;;;;;;;0.00;0.00;;;;;;;2.73;71.21;100028.09;5011276;28;20247;-60
2022/03/22 06:30:05;;;;;;;0.00;0.00;;;;;;;2.76;70.58;100031.41;5011271;28;20715;-59
2022/03/22 06:32:32;;;;;;;0.00;0.00;;;;;;;2.78;71.34;100029.59;5013016;28;20209;-58
2022/03/22 06:35:00;;;;;;;0.00;0.00;;;;;;;2.82;72.34;100037.19;5031814;23;20221;-56
2022/03/22 06:37:27;;;;;;;0.00;0.00;;;;;;;2.89;72.40;100036.03;5007540;28;20224;-54
2022/03/22 06:39:54;;;;;;;0.00;0.00;;;;;;;2.95;72.21;100036.59;4994586;28;20587;-56
2022/03/22 06:42:21;;;;;;;0.00;0.00;;;;;;;3.01;71.36;100043.25;4995298;28;20197;-56
2022/03/22 06:44:49;;;;;;;0.00;0.00;;;;;;;3.05;71.68;100042.19;5009922;28;20205;-55
2022/03/22 06:47:16;;;;;;;0.00;0.00;;;;;;;3.07;71.54;100049.84;5006007;28;20189;-55
2022/03/22 06:49:43;;;;;;;0.00;0.00;;;;;;;3.10;72.06;100050.56;5014240;28;20196;-55
2022/03/22 06:52:12;;;;;;;0.00;0.00;;;;;;;3.10;72.05;100048.00;5013624;28;20192;-55
2022/03/22 06:54:38;;;;;;;0.00;0.00;;;;;;;3.22;72.67;100056.06;5013809;28;20223;-54
2022/03/22 06:57:06;;;;;;;0.00;0.00;;;;;;;3.20;72.61;100058.72;5014677;28;20188;-54
2022/03/22 06:59:34;;;;;;;0.00;0.00;;;;;;;3.20;72.20;100060.47;5014447;28;20194;-55
2022/03/22 07:02:01;;;;;;;0.00;0.00;;;;;;;3.23;72.44;100057.75;5014356;28;20199;-50
2022/03/22 07:04:28;;;;;;;0.00;0.00;;;;;;;3.26;72.21;100052.44;5013847;28;20213;-51
2022/03/22 07:06:55;;;;;;;0.00;0.00;;;;;;;3.27;73.27;100055.88;5014557;28;20213;-50
2022/03/22 07:09:23;;;;;;;0.00;0.00;;;;;;;3.27;73.25;100056.69;5014597;28;20190;-51
2022/03/22 07:11:55;;;;;;;0.00;0.00;;;;;;;3.28;72.85;100067.88;5014194;28;20232;-52
2022/03/22 07:14:24;;;;;;;0.00;0.00;;;;;;;3.29;73.08;100062.63;5013894;28;20296;-51
2022/03/22 07:16:51;;;;;;;0.00;0.00;;;;;;;3.28;73.66;100067.88;5014358;28;20187;-52
2022/03/22 07:19:19;;;;;;;0.00;0.00;;;;;;;3.29;73.95;100069.56;5012435;28;20279;-51
2022/03/22 07:21:47;;;;;;;0.00;0.00;;;;;;;3.35;73.26;100075.25;5014112;28;20185;-50
2022/03/22 07:24:16;;;;;;;0.00;0.00;;;;;;;3.33;73.56;100073.69;5013791;28;20207;-50
2022/03/22 07:26:44;;;;;;;0.00;0.00;;;;;;;3.38;73.66;100074.31;5014022;28;20204;-51
2022/03/22 07:29:12;;;;;;;0.00;0.00;;;;;;;3.46;73.42;100073.94;5013962;28;20231;-51
2022/03/22 07:31:40;;;;;;;0.00;0.00;;;;;;;3.54;74.50;100072.72;5013796;28;20247;-52
2022/03/22 07:34:08;;;;;;;0.00;0.00;;;;;;;3.65;74.43;100072.19;5013576;28;20255;-51
2022/03/22 07:36:36;;;;;;;0.00;0.00;;;;;;;3.78;73.78;100074.22;5013976;28;20197;-52
2022/03/22 07:39:03;;;;;;;0.00;0.00;;;;;;;4.08;69.97;100076.28;5014183;28;20187;-52
2022/03/22 07:41:30;;;;;;;0.00;0.00;;;;;;;4.21;71.11;100074.78;5012965;28;20197;-50
2022/03/22 07:43:58;;;;;;;0.00;0.00;;;;;;;4.41;70.33;100078.13;5013522;28;20212;-51
2022/03/22 07:46:25;;;;;;;0.00;0.00;;;;;;;4.60;69.17;100083.22;5013590;28;20182;-51
2022/03/22 07:48:52;;;;;;;0.00;0.00;;;;;;;4.77;69.22;100084.97;5013756;28;20189;-51
2022/03/22 07:54:04;;;;;;;0.00;0.00;;;;;;;5.01;69.55;100082.03;5013190;28;20291;-50
2022/03/22 07:56:31;;;;;;;0.00;0.00;;;;;;;5.07;68.27;100086.91;5013520;28;20189;-51
2022/03/22 07:58:59;;;;;;;0.00;0.00;;;;;;;5.22;67.76;100092.22;5013612;28;20267;-51
2022/03/22 08:01:26;;;;;;;0.00;0.00;;;;;;;5.32;68.06;100091.63;5013290;28;20661;-51
2022/03/22 08:03:53;;;;;;;0.00;0.00;;;;;;;5.48;67.85;100098.59;5013280;28;20272;-52
2022/03/22 08:06:20;;;;;;;0.00;0.00;;;;;;;5.55;66.92;100093.91;5013305;28;20194;-51
2022/03/22 08:08:47;;;;;;;0.00;0.00;;;;;;;5.61;67.73;100101.34;5013385;28;20282;-51
2022/03/22 08:11:14;;;;;;;0.00;0.00;;;;;;;5.70;66.95;100107.81;5012877;28;20193;-52
2022/03/22 08:13:40;;;;;;;0.00;0.00;;;;;;;5.85;67.32;100104.34;5013345;28;20611;-51
2022/03/22 08:16:09;;;;;;;0.00;0.00;;;;;;;5.97;65.35;100113.22;5012672;28;20265;-51
2022/03/22 08:18:36;;;;;;;0.00;0.00;;;;;;;6.07;64.97;100115.34;5012984;28;20660;-51
2022/03/22 08:21:03;;;;;;;0.00;0.00;;;;;;;6.17;65.28;100117.34;5013012;28;20217;-51
2022/03/22 08:23:30;;;;;;;0.00;0.00;;;;;;;6.28;64.56;100115.91;5013221;28;20181;-57
2022/03/22 08:25:56;;;;;;;0.00;0.00;;;;;;;6.42;64.96;100102.97;5012310;28;20210;-51
2022/03/22 08:28:23;;;;;;;0.00;0.00;;;;;;;6.50;64.19;100120.69;5012951;28;20192;-52
2022/03/22 08:30:50;;;;;;;0.00;0.00;;;;;;;6.61;63.42;100115.72;5012771;28;20193;-51
2022/03/22 08:33:18;;;;;;;0.00;0.00;;;;;;;6.69;63.61;100106.66;5013100;28;20221;-51
2022/03/22 08:35:47;;;;;;;0.00;0.00;;;;;;;6.78;62.92;100106.97;5012315;28;20223;-51
2022/03/22 08:38:14;;;;;;;0.00;0.00;;;;;;;6.85;62.97;100112.63;5012726;28;20188;-51
2022/03/22 08:40:41;;;;;;;0.00;0.00;;;;;;;6.99;63.34;100118.78;5012300;28;20191;-52
2022/03/22 08:43:08;;;;;;;0.00;0.00;;;;;;;7.06;61.90;100105.31;5012735;28;20190;-51
2022/03/22 08:45:37;;;;;;;0.00;0.00;;;;;;;7.13;61.53;100111.00;5010979;28;20621;-51
2022/03/22 08:48:09;;;;;;;0.00;0.00;;;;;;;7.17;61.83;100107.28;5012624;28;20276;-51
2022/03/22 08:50:38;;;;;;;0.00;0.00;;;;;;;7.22;61.90;100107.84;5012343;28;20183;-52
2022/03/22 08:53:06;;;;;;;0.00;0.00;;;;;;;7.29;61.40;100116.09;5011898;28;20218;-51
2022/03/22 08:55:33;;;;;;;0.00;0.00;;;;;;;7.41;60.82;100113.69;5011471;28;20225;-50
2022/03/22 08:58:05;;;;;;;0.00;0.00;;;;;;;7.49;60.97;100114.88;5012363;28;20273;-51
2022/03/22 09:00:32;;;;;;;0.00;0.00;;;;;;;7.55;60.48;100105.88;5010816;28;20199;-51
2022/03/22 09:02:59;;;;;;;0.00;0.00;;;;;;;7.56;59.92;100104.09;5012447;28;20209;-52
2022/03/22 09:08:12;;;;;;;0.00;0.00;;;;;;;7.87;60.13;100110.00;5012182;28;20310;-51
2022/03/22 09:10:39;;;;;;;0.00;0.00;;;;;;;7.99;60.83;100111.81;5011901;28;20198;-51
2022/03/22 09:13:07;;;;;;;0.00;0.00;;;;;;;8.09;60.18;100104.25;5012096;28;20207;-54
2022/03/22 09:15:37;;;;;;;0.00;0.00;;;;;;;8.21;60.08;100106.06;5011430;28;20702;-53
2022/03/22 09:18:05;;;;;;;0.00;0.00;;;;;;;8.36;59.00;100114.66;5011945;28;20198;-52
2022/03/22 09:20:32;;;;;;;0.00;0.00;;;;;;;8.45;56.92;100115.00;5011340;28;20195;-52
2022/03/22 09:23:01;;;;;;;0.00;0.00;;;;;;;8.60;55.25;100103.59;5011957;28;20187;-52
2022/03/22 09:25:29;;;;;;;0.00;0.00;;;;;;;8.71;53.87;100108.09;5011540;28;20285;-52
2022/03/22 09:28:00;;;;;;;0.00;0.00;;;;;;;8.69;53.03;100110.78;5010635;28;20202;-52
2022/03/22 09:30:27;;;;;;;0.00;0.00;;;;;;;8.87;52.97;100110.50;5011439;28;20199;-52
2022/03/22 09:32:56;;;;;;;0.00;0.00;;;;;;;8.88;54.02;100100.94;5011915;28;20187;-51
2022/03/22 09:35:23;;;;;;;0.00;0.00;;;;;;;9.05;54.43;100105.00;5010939;28;20215;-52
2022/03/22 09:37:50;;;;;;;0.00;0.00;;;;;;;9.18;53.92;100112.78;5011732;28;20202;-53
2022/03/22 09:40:20;;;;;;;0.00;0.00;;;;;;;9.30;55.08;100111.94;5011137;28;20192;-51
2022/03/22 09:42:49;;;;;;;0.00;0.00;;;;;;;9.38;54.64;100109.66;5011820;28;20211;-51
2022/03/22 09:45:18;;;;;;;0.00;0.00;;;;;;;9.45;53.99;100118.72;5011222;28;20654;-52
2022/03/22 09:47:47;;;;;;;0.00;0.00;;;;;;;9.49;52.61;100108.91;5011496;28;20193;-53
2022/03/22 09:50:16;;;;;;;0.00;0.00;;;;;;;9.48;52.74;100111.63;5010910;28;20195;-52
2022/03/22 09:52:43;;;;;;;0.00;0.00;;;;;;;9.53;51.56;100114.75;5011019;28;20540;-52
2022/03/22 09:55:12;;;;;;;0.00;0.00;;;;;;;9.82;50.56;100112.69;5010265;28;20684;-52
2022/03/22 09:57:39;;;;;;;0.00;0.00;;;;;;;9.94;51.65;100115.34;5010462;28;20202;-51
2022/03/22 10:00:10;;;;;;;0.00;0.00;;;;;;;10.09;50.84;100113.41;5011084;28;20189;-52
2022/03/22 10:02:40;;;;;;;0.00;0.00;;;;;;;10.10;50.28;100113.31;5011416;28;20185;-52
2022/03/22 10:05:08;;;;;;;0.00;0.00;;;;;;;10.25;49.60;100110.53;5010794;28;20202;-51
2022/03/22 10:07:34;;;;;;;0.00;0.00;;;;;;;10.38;49.54;100111.31;5011182;28;20197;-52
2022/03/22 10:10:06;;;;;;;0.00;0.00;;;;;;;10.45;48.95;100109.94;5010835;28;20191;-52
2022/03/22 10:12:35;;;;;;;0.00;0.00;;;;;;;10.41;48.77;100107.66;5011406;28;20191;-52
2022/03/22 10:15:09;;;;;;;0.00;0.00;;;;;;;10.47;47.62;100110.66;5010785;28;20722;-52
2022/03/22 10:17:37;;;;;;;0.00;0.00;;;;;;;10.48;47.92;100101.03;5011107;28;20180;-51
2022/03/22 10:20:06;;;;;;;0.00;0.00;;;;;;;10.56;48.42;100096.06;5009817;28;20189;-53
2022/03/22 10:22:34;;;;;;;0.00;0.00;;;;;;;10.74;48.16;100098.25;4980168;28;20286;-52
2022/03/22 10:25:04;;;;;;;0.00;0.00;;;;;;;10.81;48.62;100102.06;4979708;28;20747;-52
2022/03/22 10:27:33;;;;;;;0.00;0.00;;;;;;;10.88;48.13;100108.50;4979907;28;20193;-51
2022/03/22 10:30:02;;;;;;;0.00;0.00;;;;;;;10.89;47.25;100106.72;4980514;28;20663;-53
2022/03/22 10:32:34;;;;;;;0.00;0.00;;;;;;;10.96;48.18;100100.06;4981745;28;20265;-53
2022/03/22 10:35:11;;;;;;;0.00;0.00;;;;;;;10.94;47.02;100107.19;4980282;28;20684;-53
2022/03/22 10:37:39;;;;;;;0.00;0.00;;;;;;;10.92;47.59;100096.03;4980777;28;20188;-53
2022/03/22 10:40:21;;;;;;;0.00;0.00;;;;;;;11.03;47.64;100092.63;4979289;28;20251;-53
2022/03/22 10:42:49;;;;;;;0.00;0.00;;;;;;;11.06;47.81;100095.00;4986317;28;20224;-52
2022/03/22 10:45:16;;;;;;;0.00;0.00;;;;;;;11.07;47.67;100092.25;4986625;28;20209;-51
2022/03/22 10:47:44;;;;;;;0.00;0.00;;;;;;;11.07;49.39;100087.03;4984318;28;20800;-50
2022/03/22 10:50:11;;;;;;;0.00;0.00;;;;;;;11.18;47.48;100082.75;4979381;28;20183;-50
2022/03/22 10:52:48;;;;;;;0.00;0.00;;;;;;;11.28;46.19;100091.53;4982705;28;20201;-51
2022/03/22 10:55:19;;;;;;;0.00;0.00;;;;;;;11.20;45.38;100081.66;4998591;28;20218;-50
2022/03/22 10:57:48;;;;;;;0.00;0.00;;;;;;;11.33;48.90;100081.56;4983846;28;20235;-48
2022/03/22 11:00:16;;;;;;;0.00;0.00;;;;;;;11.32;48.34;100072.06;4977904;28;20836;-50
2022/03/22 11:02:48;;;;;;;0.00;0.00;;;;;;;11.47;47.54;100071.81;4976475;28;20276;-49
2022/03/22 11:05:17;;;;;;;0.00;0.00;;;;;;;11.54;47.35;100080.84;4971402;28;20204;-50
2022/03/22 11:07:44;;;;;;;0.00;0.00;;;;;;;11.54;46.96;100080.84;4971659;28;20190;-49
2022/03/22 11:10:11;;;;;;;0.00;0.00;;;;;;;11.73;48.43;100080.19;4971756;28;20205;-50
2022/03/22 11:12:38;;;;;;;0.00;0.00;;;;;;;11.69;47.32;100073.53;4971707;28;20197;-50
2022/03/22 11:15:07;;;;;;;0.00;0.00;;;;;;;11.81;45.63;100084.81;4972931;28;20247;-51
2022/03/22 11:17:36;;;;;;;0.00;0.00;;;;;;;11.80;45.55;100081.38;4979148;28;20198;-49
2022/03/22 11:20:07;;;;;;;0.00;0.00;;;;;;;11.72;45.25;100078.53;4983899;28;20677;-49
2022/03/22 11:22:34;;;;;;;0.00;0.00;;;;;;;11.84;45.19;100076.69;4984919;28;20193;-49
2022/03/22 11:25:07;;;;;;;0.00;0.00;;;;;;;11.86;44.49;100069.56;4981486;28;20690;-51
2022/03/22 11:27:35;;;;;;;0.00;0.00;;;;;;;11.96;45.91;100070.50;4982737;28;20674;-52
2022/03/22 11:30:04;;;;;;;0.00;0.00;;;;;;;12.06;44.41;100075.00;4987108;28;20217;-49
2022/03/22 11:35:18;;;;;;;0.00;0.00;;;;;;;12.17;44.92;100067.13;4984384;28;20249;-51
2022/03/22 11:37:55;;;;;;;0.00;0.00;;;;;;;12.27;43.35;100055.88;4983801;28;20193;-49
2022/03/22 11:43:10;;;;;;;0.00;0.00;;;;;;;12.38;42.80;100053.22;4982347;28;20199;-51
2022/03/22 11:45:46;;;;;;;0.00;0.00;;;;;;;12.44;41.85;100046.63;4974646;28;20229;-48
2022/03/22 11:48:13;;;;;;;0.00;0.00;;;;;;;12.59;40.81;100050.59;4986271;28;20197;-51
2022/03/22 11:50:43;;;;;;;0.00;0.00;;;;;;;12.62;40.55;100049.50;4982887;28;20598;-49
2022/03/22 11:53:17;;;;;;;38.47;14.23;;;;;;;12.75;41.81;100047.50;4987712;28;20589;-49
2022/03/22 11:55:44;;;;;;;22.67;12.83;;;;;;;13.05;45.76;100047.66;4997741;28;20217;-47
2022/03/22 11:58:10;;;;;;;27.07;14.03;;;;;;;12.81;39.76;100046.16;4998132;28;20198;-47
2022/03/22 12:00:43;;;;;;;25.87;13.90;;;;;;;12.93;39.15;100039.03;4995394;28;20197;-51
2022/03/22 12:03:11;;;;;;;26.77;15.53;;;;;;;12.91;39.99;100035.72;4994367;28;20203;-46
2022/03/22 12:05:38;;;;;;;22.67;13.13;;;;;;;13.17;37.94;100045.75;4987478;28;20230;-51
2022/03/22 12:08:07;;;;;;;30.37;12.63;;;;;;;12.92;34.76;100038.22;4990838;28;20206;-54
2022/03/22 12:10:35;;;;;;;21.77;12.13;;;;;;;13.14;35.36;100034.56;4990113;28;20197;-49